Congress Lake, Ohio
Current Conditions -  °F | °C
As of 7:51 AM on Tuesday 21 Oct 2014 (Local Time) from KCAK Reporting Station
Light Rain Light Rain  
Wind Chill: 51°   Ceiling: 700
Heat Index: 51°   Visibility: 2mi
Dew Point: 47°   Wind: 7mph
Humidity: 86%   Direction: 320°NW
Pressure: 29.88"   Gusts: NA
Location:  40.9665°N, 81.3038°W
Report Text: KCAK 211151Z 32006KT 2SM -RA BR BKN007 OVC028 11/08 A2988 RMK AO2 SLP118 P0026 60081 70096 T01060083 10111 20100 53012 $
Loading
Personal Weather Stations






























Interactive Weather Map
Tropical Storm Tracking
New forecast layout! Learn more

10-Day Weather Forecast

Advertisements
Track Severe Weather on mobile